Time;durP1;ratioP1;P1;durP2;ratioP2;P2;SDS_P1;SDS_P2;PMS_P1;PMS_P2;Temp;Humidity;BMP_temperature;BMP_pressure;BME280_temperature;BME280_humidity;BME280_pressure;Samples;Min_cycle;Max_cycle;Signal;HPM_P1;HPM_P2
2024/01/12 00:00:47;;;;;;;111.72;34.38;;;-5.50;99.90;;;;;;5028851;28;20037;-81
2024/01/12 00:03:13;;;;;;;107.30;35.20;;;-5.50;99.90;;;;;;5028339;28;20029;-80
2024/01/12 00:05:38;;;;;;;115.63;35.15;;;-5.60;99.90;;;;;;5029143;28;20061;-81
2024/01/12 00:08:04;;;;;;;116.90;34.28;;;-5.70;99.90;;;;;;5027727;28;20736;-81
2024/01/12 00:10:30;;;;;;;111.38;34.88;;;-5.70;99.90;;;;;;5029056;28;20029;-80
2024/01/12 00:12:55;;;;;;;112.22;33.95;;;-5.70;99.90;;;;;;5028282;28;20057;-80
2024/01/12 00:15:21;;;;;;;107.25;34.22;;;-5.70;99.90;;;;;;5040226;28;20094;-81
2024/01/12 00:17:47;;;;;;;122.65;35.25;;;-5.70;99.90;;;;;;5035713;28;20025;-81
2024/01/12 00:20:12;;;;;;;107.30;34.63;;;-5.70;99.90;;;;;;5031798;28;20174;-80
2024/01/12 00:22:38;;;;;;;119.45;35.60;;;-5.80;99.90;;;;;;5034258;28;20090;-80
2024/01/12 00:25:04;;;;;;;112.28;34.60;;;-5.80;99.90;;;;;;5027758;28;20034;-80
2024/01/12 00:27:30;;;;;;;110.43;33.58;;;-5.80;99.90;;;;;;5028580;28;20135;-81
2024/01/12 00:29:55;;;;;;;113.80;36.33;;;-5.80;99.90;;;;;;5028556;28;20216;-81
2024/01/12 00:32:21;;;;;;;120.18;36.80;;;-5.90;99.90;;;;;;5027956;28;20029;-80
2024/01/12 00:34:47;;;;;;;108.05;35.10;;;-5.90;99.90;;;;;;5028390;28;20048;-81
2024/01/12 00:37:12;;;;;;;111.20;33.22;;;-5.80;99.90;;;;;;5030467;28;20143;-81
2024/01/12 00:39:38;;;;;;;110.20;33.83;;;-5.80;99.90;;;;;;5028755;28;20034;-80
2024/01/12 00:42:04;;;;;;;95.90;31.05;;;-5.90;99.90;;;;;;5028130;28;20103;-80
2024/01/12 00:44:30;;;;;;;112.47;33.13;;;-6.00;99.90;;;;;;5032709;28;20026;-81
2024/01/12 00:46:56;;;;;;;111.82;35.53;;;-6.00;99.90;;;;;;5043450;28;20036;-81
2024/01/12 00:49:21;;;;;;;110.22;34.78;;;-6.00;99.90;;;;;;5031958;28;20025;-81
2024/01/12 00:51:48;;;;;;;109.82;35.83;;;-6.00;99.90;;;;;;5031263;28;20080;-81
2024/01/12 00:54:14;;;;;;;115.57;35.83;;;-5.90;99.90;;;;;;5030433;28;20029;-81
2024/01/12 00:56:40;;;;;;;118.10;36.25;;;-5.90;99.90;;;;;;5032018;28;20038;-81
2024/01/12 00:59:06;;;;;;;111.63;33.50;;;-5.90;99.90;;;;;;5032456;28;20018;-80
2024/01/12 01:01:33;;;;;;;121.47;34.38;;;-5.80;99.90;;;;;;5033585;28;20037;-81
2024/01/12 01:04:00;;;;;;;107.47;34.88;;;-5.90;99.90;;;;;;5032449;28;20075;-82
2024/01/12 01:06:26;;;;;;;112.35;34.60;;;-6.00;99.90;;;;;;5031920;28;20104;-81
2024/01/12 01:08:52;;;;;;;106.43;34.65;;;-6.00;99.90;;;;;;5044210;28;20216;-79
2024/01/12 01:11:18;;;;;;;105.45;34.53;;;-6.00;99.90;;;;;;5031390;28;20481;-80
2024/01/12 01:13:43;;;;;;;113.18;34.83;;;-6.00;99.90;;;;;;5032039;28;20048;-79
2024/01/12 01:16:10;;;;;;;112.90;34.97;;;-6.00;99.90;;;;;;5035292;28;20028;-81
2024/01/12 01:18:36;;;;;;;110.47;33.63;;;-5.90;99.90;;;;;;5044514;28;20479;-81
2024/01/12 01:21:02;;;;;;;106.53;34.85;;;-5.90;99.90;;;;;;5031835;28;20031;-76
2024/01/12 01:23:27;;;;;;;106.30;33.05;;;-6.00;99.90;;;;;;5036370;28;20539;-82
2024/01/12 01:25:56;;;;;;;104.78;32.85;;;-6.00;99.90;;;;;;5048872;28;20028;-81
2024/01/12 01:28:22;;;;;;;97.55;32.05;;;-6.00;99.90;;;;;;5038377;28;20040;-79
2024/01/12 01:30:48;;;;;;;94.50;31.23;;;-6.00;99.90;;;;;;5042224;28;20057;-80
2024/01/12 01:33:13;;;;;;;106.10;31.70;;;-6.10;99.90;;;;;;5031332;28;20042;-81
2024/01/12 01:35:39;;;;;;;103.45;31.88;;;-6.20;99.90;;;;;;5051013;28;20029;-81
2024/01/12 01:38:05;;;;;;;107.28;34.17;;;-6.20;99.90;;;;;;5035680;28;20037;-76
2024/01/12 01:40:30;;;;;;;105.78;32.05;;;-6.20;99.90;;;;;;5045626;28;20032;-79
2024/01/12 01:42:56;;;;;;;97.38;32.17;;;-6.20;99.90;;;;;;5034371;28;20099;-81
2024/01/12 01:45:22;;;;;;;109.75;32.53;;;-6.20;99.90;;;;;;5030799;28;20819;-80
2024/01/12 01:47:48;;;;;;;101.32;31.48;;;-6.20;99.90;;;;;;5048336;28;20061;-80
2024/01/12 01:50:15;;;;;;;112.85;34.20;;;-6.20;99.90;;;;;;5032714;28;20438;-81
2024/01/12 01:52:45;;;;;;;101.38;31.88;;;-6.30;99.90;;;;;;5037162;28;20072;-80
2024/01/12 01:55:14;;;;;;;101.63;32.45;;;-6.40;99.90;;;;;;5035281;28;20477;-80
2024/01/12 01:57:42;;;;;;;105.85;31.60;;;-6.50;99.90;;;;;;5031207;28;20033;-81
2024/01/12 02:00:11;;;;;;;114.45;32.25;;;-6.60;99.90;;;;;;5032934;28;20648;-79
2024/01/12 02:02:37;;;;;;;113.00;34.97;;;-6.50;99.90;;;;;;5031438;28;20144;-82
2024/01/12 02:05:07;;;;;;;102.13;31.55;;;-6.50;99.90;;;;;;5038072;28;20029;-77
2024/01/12 02:07:33;;;;;;;102.63;29.93;;;-6.50;99.90;;;;;;5042653;28;20040;-79
2024/01/12 02:09:59;;;;;;;108.32;32.38;;;-6.40;99.90;;;;;;5030979;28;20068;-81
2024/01/12 02:12:26;;;;;;;96.75;30.75;;;-6.50;99.90;;;;;;5032491;28;20300;-81
2024/01/12 02:14:52;;;;;;;99.43;31.80;;;-6.50;99.90;;;;;;5038951;28;20037;-81
2024/01/12 02:17:18;;;;;;;108.53;32.50;;;-6.50;99.90;;;;;;5030633;28;20060;-80
2024/01/12 02:19:44;;;;;;;96.93;31.20;;;-6.50;99.90;;;;;;5030760;28;20033;-80
2024/01/12 02:22:09;;;;;;;94.53;31.38;;;-6.50;99.90;;;;;;5029461;28;20029;-81
2024/01/12 02:24:35;;;;;;;100.22;30.80;;;-6.50;99.90;;;;;;5034097;28;20108;-81
2024/01/12 02:27:00;;;;;;;97.72;31.23;;;-6.40;99.90;;;;;;5029740;28;20036;-79
2024/01/12 02:29:26;;;;;;;114.38;31.85;;;-6.50;99.90;;;;;;5029771;28;21589;-81
2024/01/12 02:31:52;;;;;;;105.88;31.92;;;-6.50;99.90;;;;;;5030824;28;20513;-81
2024/01/12 02:34:18;;;;;;;104.18;32.00;;;-6.50;99.90;;;;;;5029823;28;20049;-80
2024/01/12 02:36:43;;;;;;;113.45;32.17;;;-6.50;99.90;;;;;;5029025;28;20075;-80
2024/01/12 02:39:10;;;;;;;94.75;30.40;;;-6.50;99.90;;;;;;5030352;28;20030;-77
2024/01/12 02:41:35;;;;;;;107.97;31.52;;;-6.50;99.90;;;;;;5040129;28;20040;-81
2024/01/12 02:44:01;;;;;;;105.25;30.60;;;-6.50;99.90;;;;;;5031279;28;20524;-82
2024/01/12 02:46:27;;;;;;;91.60;29.70;;;-6.50;99.90;;;;;;5034598;28;20020;-81
2024/01/12 02:48:52;;;;;;;91.82;29.15;;;-6.60;99.90;;;;;;5042039;28;20060;-81
2024/01/12 02:51:18;;;;;;;90.57;29.77;;;-6.60;99.90;;;;;;5031836;28;20037;-81
2024/01/12 02:53:43;;;;;;;92.43;28.95;;;-6.60;99.90;;;;;;5031192;28;20045;-80
2024/01/12 02:56:10;;;;;;;101.32;30.90;;;-6.60;99.90;;;;;;5029432;28;20025;-76
2024/01/12 02:58:36;;;;;;;103.03;31.25;;;-6.60;99.90;;;;;;5028892;28;20025;-81
2024/01/12 03:01:02;;;;;;;107.50;29.40;;;-6.60;99.90;;;;;;5028379;28;20394;-79
2024/01/12 03:03:27;;;;;;;102.60;30.92;;;-6.60;99.90;;;;;;5028239;28;20048;-81
2024/01/12 03:05:53;;;;;;;119.00;40.80;;;-6.60;99.90;;;;;;5033266;28;20029;-81
2024/01/12 03:08:18;;;;;;;105.38;30.88;;;-6.60;99.90;;;;;;5029379;28;20025;-81
2024/01/12 03:10:44;;;;;;;105.72;32.28;;;-6.60;99.90;;;;;;5028075;28;20045;-82
2024/01/12 03:13:10;;;;;;;106.50;33.15;;;-6.70;99.90;;;;;;5029431;28;20033;-76
2024/01/12 03:15:35;;;;;;;106.57;32.53;;;-6.60;99.90;;;;;;5029270;28;20486;-81
2024/01/12 03:18:01;;;;;;;107.30;32.78;;;-6.60;99.90;;;;;;5030151;28;20013;-81
2024/01/12 03:20:26;;;;;;;93.10;30.08;;;-6.70;99.90;;;;;;5029211;28;20029;-82
2024/01/12 03:22:52;;;;;;;99.35;30.25;;;-6.70;99.90;;;;;;5028018;28;20102;-82
2024/01/12 03:25:18;;;;;;;104.45;31.08;;;-6.70;99.90;;;;;;5029410;28;20041;-80
2024/01/12 03:27:43;;;;;;;97.82;31.40;;;-6.70;99.90;;;;;;5029190;28;20033;-81
2024/01/12 03:30:10;;;;;;;100.47;32.17;;;-6.70;99.90;;;;;;5028929;28;20029;-76
2024/01/12 03:32:35;;;;;;;104.15;32.05;;;-6.70;99.90;;;;;;5028673;28;20052;-82
2024/01/12 03:35:01;;;;;;;104.05;31.58;;;-6.70;99.90;;;;;;5029875;28;20026;-81
2024/01/12 03:37:26;;;;;;;102.70;31.90;;;-6.70;99.90;;;;;;5028330;28;20599;-81
2024/01/12 03:39:52;;;;;;;95.93;30.50;;;-6.70;99.90;;;;;;5029600;28;20041;-81
2024/01/12 03:42:18;;;;;;;118.38;31.15;;;-6.80;99.90;;;;;;5026823;28;20383;-80
2024/01/12 03:44:43;;;;;;;99.32;30.17;;;-6.90;99.90;;;;;;5029203;28;20060;-81
2024/01/12 03:47:09;;;;;;;107.40;30.95;;;-6.90;99.90;;;;;;5029897;28;20041;-80
2024/01/12 03:49:34;;;;;;;103.32;30.55;;;-6.90;99.90;;;;;;5031210;28;20037;-81
2024/01/12 03:52:00;;;;;;;94.60;30.20;;;-6.90;99.90;;;;;;5041554;28;20033;-81
2024/01/12 03:54:27;;;;;;;98.78;30.92;;;-6.80;99.90;;;;;;5028955;28;20049;-81
2024/01/12 03:56:53;;;;;;;103.03;30.02;;;-6.90;99.90;;;;;;5027845;28;20083;-80
2024/01/12 03:59:19;;;;;;;104.80;31.50;;;-6.80;99.90;;;;;;5026904;28;20041;-81
2024/01/12 04:01:45;;;;;;;100.07;29.48;;;-6.80;99.90;;;;;;5028345;28;20049;-81
2024/01/12 04:04:12;;;;;;;96.78;29.95;;;-6.80;99.90;;;;;;5028770;28;20033;-76
2024/01/12 04:06:39;;;;;;;104.65;31.15;;;-6.90;99.90;;;;;;5026946;28;20144;-82
2024/01/12 04:09:04;;;;;;;95.72;31.40;;;-7.00;99.90;;;;;;5026929;28;20032;-81
2024/01/12 04:11:30;;;;;;;99.03;30.67;;;-7.10;99.90;;;;;;5031205;28;20244;-81
2024/01/12 04:13:56;;;;;;;104.78;31.73;;;-7.10;99.90;;;;;;5034445;28;20029;-81
2024/01/12 04:16:21;;;;;;;107.35;31.75;;;-7.10;99.90;;;;;;5041520;28;20029;-81
2024/01/12 04:18:47;;;;;;;104.28;31.33;;;-7.10;99.90;;;;;;5049005;28;20036;-81
2024/01/12 04:21:13;;;;;;;100.88;30.77;;;-7.10;99.90;;;;;;5046407;28;20075;-74
2024/01/12 04:23:39;;;;;;;104.47;32.05;;;-7.10;99.90;;;;;;5027187;28;20026;-80
2024/01/12 04:26:08;;;;;;;108.32;31.23;;;-7.10;99.90;;;;;;5027763;28;20466;-79
2024/01/12 04:28:34;;;;;;;109.32;31.90;;;-7.10;99.90;;;;;;5026373;28;20021;-80
2024/01/12 04:31:04;;;;;;;110.40;31.65;;;-7.20;99.90;;;;;;5052743;28;20120;-78
2024/01/12 04:33:31;;;;;;;99.28;31.75;;;-7.20;99.90;;;;;;5029822;28;20036;-81
2024/01/12 04:35:58;;;;;;;107.32;32.47;;;-7.20;99.90;;;;;;5029682;28;20040;-80
2024/01/12 04:38:25;;;;;;;113.88;33.42;;;-7.10;99.90;;;;;;5024345;28;20053;-82
2024/01/12 04:40:51;;;;;;;113.75;34.50;;;-7.10;99.90;;;;;;5032905;28;20484;-80
2024/01/12 04:43:16;;;;;;;110.40;34.95;;;-7.20;99.90;;;;;;5046152;28;20032;-75
2024/01/12 04:45:42;;;;;;;117.20;32.85;;;-7.20;99.90;;;;;;5031276;28;20102;-80
2024/01/12 04:48:08;;;;;;;101.07;32.65;;;-7.20;99.90;;;;;;5037938;28;20069;-77
2024/01/12 04:50:33;;;;;;;105.68;33.30;;;-7.20;99.90;;;;;;5030932;28;20105;-80
2024/01/12 04:52:59;;;;;;;110.28;33.55;;;-7.20;99.90;;;;;;5028900;28;20055;-80
2024/01/12 04:55:25;;;;;;;108.03;32.58;;;-7.20;99.90;;;;;;5026061;28;20561;-80
2024/01/12 04:57:51;;;;;;;106.57;33.08;;;-7.20;99.90;;;;;;5032916;28;20039;-77
2024/01/12 05:00:17;;;;;;;111.20;33.70;;;-7.20;99.90;;;;;;5017235;28;20026;-76
2024/01/12 05:02:43;;;;;;;110.80;34.60;;;-7.20;99.90;;;;;;5029380;28;20047;-77
2024/01/12 05:05:08;;;;;;;108.05;33.33;;;-7.30;99.90;;;;;;5029617;28;20377;-77
2024/01/12 05:07:34;;;;;;;104.97;34.38;;;-7.30;99.90;;;;;;5027710;28;20087;-77
2024/01/12 05:10:00;;;;;;;114.00;34.03;;;-7.30;99.90;;;;;;5025375;28;20033;-75
2024/01/12 05:12:26;;;;;;;109.00;32.95;;;-7.40;99.90;;;;;;5020824;28;20033;-76
2024/01/12 05:14:52;;;;;;;119.68;35.83;;;-7.40;99.90;;;;;;5022348;28;20109;-76
2024/01/12 05:17:18;;;;;;;118.28;35.92;;;-7.40;99.90;;;;;;5022130;28;20083;-73
2024/01/12 05:19:44;;;;;;;117.20;36.08;;;-7.40;99.90;;;;;;5024660;28;20026;-75
2024/01/12 05:22:09;;;;;;;125.00;36.38;;;-7.40;99.90;;;;;;5024919;28;20029;-76
2024/01/12 05:24:35;;;;;;;210.60;52.28;;;-7.50;99.90;;;;;;5023553;28;20036;-75
2024/01/12 05:27:01;;;;;;;201.52;51.03;;;-7.50;99.90;;;;;;5020762;28;20029;-76
2024/01/12 05:29:26;;;;;;;271.70;72.53;;;-7.50;99.90;;;;;;5026775;28;20023;-76
2024/01/12 05:31:52;;;;;;;195.10;55.28;;;-7.50;99.90;;;;;;5027961;28;20033;-77
2024/01/12 05:34:18;;;;;;;161.32;43.85;;;-7.50;99.90;;;;;;5027304;28;20033;-77
2024/01/12 05:36:43;;;;;;;171.00;46.65;;;-7.50;99.90;;;;;;5031398;28;20033;-76
2024/01/12 05:39:10;;;;;;;179.82;46.50;;;-7.40;99.90;;;;;;5028279;28;20009;-78
2024/01/12 05:41:36;;;;;;;188.43;49.95;;;-7.40;99.90;;;;;;5035664;28;20037;-76
2024/01/12 05:44:01;;;;;;;185.52;49.10;;;-7.40;99.90;;;;;;5029552;28;20013;-75
2024/01/12 05:46:27;;;;;;;163.90;43.22;;;-7.50;99.90;;;;;;5022948;28;20108;-74
2024/01/12 05:48:53;;;;;;;168.43;43.42;;;-7.50;99.90;;;;;;5028234;28;20049;-75
2024/01/12 05:51:19;;;;;;;151.38;41.63;;;-7.60;99.90;;;;;;5027997;28;20026;-78
2024/01/12 05:53:45;;;;;;;119.63;36.58;;;-7.60;99.90;;;;;;5034409;28;20037;-76
2024/01/12 05:56:11;;;;;;;128.05;36.15;;;-7.60;99.90;;;;;;5028950;28;20034;-76
2024/01/12 05:58:36;;;;;;;125.03;34.83;;;-7.60;99.90;;;;;;5036845;28;20060;-76
2024/01/12 06:01:02;;;;;;;120.35;34.88;;;-7.60;99.90;;;;;;5027453;28;20041;-76
2024/01/12 06:03:28;;;;;;;125.18;36.55;;;-7.60;99.90;;;;;;5026925;28;20112;-76
2024/01/12 06:05:55;;;;;;;118.63;35.92;;;-7.60;99.90;;;;;;5033828;28;20113;-77
2024/01/12 06:08:21;;;;;;;106.25;34.78;;;-7.60;99.90;;;;;;5031120;28;20029;-77
2024/01/12 06:10:46;;;;;;;113.55;34.33;;;-7.70;99.90;;;;;;5025211;28;20033;-73
2024/01/12 06:13:12;;;;;;;123.32;34.17;;;-7.70;99.90;;;;;;5029775;28;20037;-73
2024/01/12 06:15:38;;;;;;;117.90;33.22;;;-7.70;99.90;;;;;;5030677;28;20104;-74
2024/01/12 06:18:04;;;;;;;119.40;35.00;;;-7.70;99.90;;;;;;5026612;28;20028;-76
2024/01/12 06:20:30;;;;;;;123.45;36.45;;;-7.70;99.90;;;;;;5029661;28;20490;-80
2024/01/12 06:22:56;;;;;;;120.10;34.60;;;-7.70;99.90;;;;;;5043504;28;20037;-73
2024/01/12 06:25:21;;;;;;;122.72;35.55;;;-7.70;99.90;;;;;;5030198;28;20072;-73
2024/01/12 06:27:47;;;;;;;118.65;35.85;;;-7.70;99.90;;;;;;5040441;28;20032;-75
2024/01/12 06:30:13;;;;;;;119.22;34.10;;;-7.70;99.90;;;;;;5050759;28;20032;-75
2024/01/12 06:32:39;;;;;;;115.10;34.72;;;-7.70;99.90;;;;;;5030829;28;20090;-78
2024/01/12 06:35:09;;;;;;;121.63;35.75;;;-7.70;99.90;;;;;;5029991;28;20402;-75
2024/01/12 06:37:35;;;;;;;124.05;37.03;;;-7.70;99.90;;;;;;5030071;28;20044;-74
2024/01/12 06:40:00;;;;;;;109.97;32.72;;;-7.80;99.90;;;;;;5028889;28;20033;-75
2024/01/12 06:42:28;;;;;;;117.00;35.05;;;-7.90;99.90;;;;;;5029531;28;20033;-77
2024/01/12 06:44:54;;;;;;;111.70;32.88;;;-8.00;99.90;;;;;;5031153;28;20051;-78
2024/01/12 06:47:19;;;;;;;120.03;34.92;;;-8.00;99.90;;;;;;5030754;28;20394;-75
2024/01/12 06:49:45;;;;;;;121.60;35.55;;;-7.90;99.90;;;;;;5041287;28;20143;-78
2024/01/12 06:52:11;;;;;;;136.70;40.15;;;-7.80;99.90;;;;;;5048787;28;20032;-76
2024/01/12 06:54:37;;;;;;;134.73;37.83;;;-7.80;99.90;;;;;;5031155;28;20482;-78
2024/01/12 06:57:03;;;;;;;120.85;38.05;;;-7.80;99.90;;;;;;5024752;28;20033;-78
2024/01/12 06:59:28;;;;;;;125.90;36.85;;;-7.70;99.90;;;;;;5029203;28;20041;-74
2024/01/12 07:01:54;;;;;;;114.38;34.78;;;-7.70;99.90;;;;;;5035298;28;20029;-76
2024/01/12 07:04:20;;;;;;;110.03;32.17;;;-7.70;99.90;;;;;;5039931;28;20040;-78
2024/01/12 07:06:46;;;;;;;114.20;33.88;;;-7.70;99.90;;;;;;5028918;28;20112;-78
2024/01/12 07:09:13;;;;;;;110.28;32.92;;;-7.60;99.90;;;;;;5028997;28;20025;-77
2024/01/12 07:11:42;;;;;;;115.35;34.25;;;-7.60;99.90;;;;;;5028795;28;20069;-75
2024/01/12 07:14:08;;;;;;;110.03;32.92;;;-7.60;99.90;;;;;;5029947;28;20045;-77
2024/01/12 07:16:34;;;;;;;111.57;33.95;;;-7.50;99.90;;;;;;5027412;28;20112;-76
2024/01/12 07:19:00;;;;;;;112.25;34.90;;;-7.50;99.90;;;;;;5029718;28;20031;-76
2024/01/12 07:21:26;;;;;;;112.72;34.63;;;-7.40;99.90;;;;;;5028951;28;20104;-75
2024/01/12 07:23:51;;;;;;;112.20;34.15;;;-7.30;99.90;;;;;;5028862;28;20025;-75
2024/01/12 07:26:17;;;;;;;106.97;32.35;;;-7.20;99.90;;;;;;5029529;28;20038;-74
2024/01/12 07:28:42;;;;;;;113.43;32.53;;;-7.20;99.90;;;;;;5028996;28;20017;-76
2024/01/12 07:31:08;;;;;;;114.25;32.13;;;-7.10;99.90;;;;;;5029346;28;20029;-74
2024/01/12 07:33:33;;;;;;;113.22;33.88;;;-7.10;99.90;;;;;;5043800;28;20053;-73
2024/01/12 07:35:59;;;;;;;116.03;34.47;;;-7.20;99.90;;;;;;5029668;28;20033;-78
2024/01/12 07:38:25;;;;;;;103.82;33.38;;;-7.20;99.90;;;;;;5029090;28;20025;-73
2024/01/12 07:40:50;;;;;;;107.25;33.15;;;-7.20;99.90;;;;;;5028586;28;20025;-74
2024/01/12 07:43:16;;;;;;;111.88;32.65;;;-7.10;99.90;;;;;;5028336;28;20489;-72
2024/01/12 07:45:42;;;;;;;122.97;34.75;;;-7.20;99.90;;;;;;5027597;28;20100;-73
2024/01/12 07:48:07;;;;;;;115.18;32.58;;;-7.10;99.90;;;;;;5029253;28;20141;-72
2024/01/12 07:50:33;;;;;;;100.72;32.88;;;-7.10;99.90;;;;;;5028611;28;20025;-77
2024/01/12 07:52:59;;;;;;;108.28;32.22;;;-7.00;99.90;;;;;;5029223;28;20461;-74
2024/01/12 07:55:27;;;;;;;96.90;28.63;;;-6.90;99.90;;;;;;5032319;28;20493;-72
2024/01/12 07:57:53;;;;;;;101.43;29.23;;;-6.70;99.90;;;;;;5028768;28;20025;-77
2024/01/12 08:00:19;;;;;;;100.88;29.50;;;-6.50;99.90;;;;;;5028432;28;20091;-78
2024/01/12 08:02:44;;;;;;;115.72;30.30;;;-6.40;99.90;;;;;;5028581;28;20120;-74
2024/01/12 08:05:10;;;;;;;110.18;29.83;;;-6.30;99.90;;;;;;5029161;28;20040;-77
2024/01/12 08:07:37;;;;;;;117.90;34.25;;;-6.20;99.90;;;;;;5028316;28;20095;-77
2024/01/12 08:10:03;;;;;;;125.70;37.47;;;-6.10;99.90;;;;;;5028201;28;20041;-74
2024/01/12 08:12:29;;;;;;;117.35;35.08;;;-6.10;99.90;;;;;;5027932;28;20394;-76
2024/01/12 08:14:55;;;;;;;114.93;33.30;;;-6.00;99.90;;;;;;5028693;28;20033;-77
2024/01/12 08:17:20;;;;;;;104.72;30.95;;;-5.90;99.90;;;;;;5037173;28;20067;-75
2024/01/12 08:19:47;;;;;;;106.38;31.25;;;-5.80;99.90;;;;;;5042062;28;20108;-75
2024/01/12 08:22:13;;;;;;;113.82;32.95;;;-5.60;99.90;;;;;;5028476;28;20021;-77
2024/01/12 08:24:39;;;;;;;109.50;32.17;;;-5.60;99.90;;;;;;5027883;28;20478;-76
2024/01/12 08:27:05;;;;;;;107.18;28.15;;;-5.60;99.90;;;;;;5022935;28;20033;-77
2024/01/12 08:29:31;;;;;;;106.10;30.05;;;-5.50;99.90;;;;;;5027529;28;20056;-73
2024/01/12 08:31:58;;;;;;;101.05;28.48;;;-5.40;99.90;;;;;;5028774;28;20029;-75
2024/01/12 08:34:24;;;;;;;107.88;29.50;;;-5.40;99.90;;;;;;5028848;28;20429;-74
2024/01/12 08:36:50;;;;;;;102.15;29.35;;;-5.40;99.90;;;;;;5029027;28;20132;-77
2024/01/12 08:39:16;;;;;;;96.70;26.83;;;-5.40;99.90;;;;;;5047651;28;20508;-76
2024/01/12 08:41:42;;;;;;;80.25;22.77;;;-5.30;99.90;;;;;;5027892;28;20474;-75
2024/01/12 08:44:07;;;;;;;77.68;20.98;;;-5.30;99.90;;;;;;5027850;28;20037;-76
2024/01/12 08:46:33;;;;;;;119.57;30.98;;;-5.30;99.90;;;;;;5027683;28;20033;-74
2024/01/12 08:49:00;;;;;;;134.25;34.38;;;-5.30;99.90;;;;;;5028359;28;20534;-71
2024/01/12 08:51:26;;;;;;;74.68;21.52;;;-5.30;99.90;;;;;;5027790;28;20092;-72
2024/01/12 08:53:51;;;;;;;83.05;21.75;;;-5.30;99.90;;;;;;5027550;28;20132;-72
2024/01/12 08:56:17;;;;;;;77.95;20.90;;;-5.20;99.90;;;;;;5037054;28;20145;-72
2024/01/12 08:58:43;;;;;;;87.60;23.67;;;-5.10;99.90;;;;;;5038492;28;20037;-74
2024/01/12 09:01:09;;;;;;;111.93;31.58;;;-5.10;99.90;;;;;;5024177;28;20101;-73
2024/01/12 09:03:34;;;;;;;89.93;23.67;;;-5.00;99.90;;;;;;5028687;28;20061;-73
2024/01/12 09:06:00;;;;;;;111.30;30.38;;;-5.00;99.90;;;;;;5035853;28;20067;-73
2024/01/12 09:08:26;;;;;;;90.25;25.83;;;-5.00;99.90;;;;;;5031899;28;20386;-75
2024/01/12 09:10:51;;;;;;;122.22;34.83;;;-4.90;99.90;;;;;;5031510;28;20030;-76
2024/01/12 09:13:17;;;;;;;153.95;42.65;;;-4.90;99.90;;;;;;5030782;28;20811;-75
2024/01/12 09:15:43;;;;;;;164.05;45.58;;;-4.80;99.90;;;;;;5031903;28;20034;-74
2024/01/12 09:18:08;;;;;;;217.30;56.85;;;-4.70;99.90;;;;;;5031577;28;20112;-77
2024/01/12 09:20:34;;;;;;;221.95;64.45;;;-4.70;99.90;;;;;;5030871;28;20079;-79
2024/01/12 09:22:59;;;;;;;224.07;58.80;;;-4.60;99.90;;;;;;5032185;28;20034;-77
2024/01/12 09:25:26;;;;;;;190.18;51.45;;;-4.50;99.90;;;;;;5032358;28;20424;-79
2024/01/12 09:27:52;;;;;;;307.45;73.53;;;-4.60;99.90;;;;;;5037635;28;20022;-78
2024/01/12 09:30:19;;;;;;;229.98;60.47;;;-4.60;99.90;;;;;;5031628;28;20152;-77
2024/01/12 09:32:44;;;;;;;214.05;59.25;;;-4.50;99.90;;;;;;5030978;28;20029;-75
2024/01/12 09:35:10;;;;;;;245.73;65.68;;;-4.40;99.90;;;;;;5030528;28;20038;-75
2024/01/12 09:37:36;;;;;;;201.85;57.22;;;-4.30;99.90;;;;;;5039583;28;20030;-76
2024/01/12 09:40:02;;;;;;;134.00;39.72;;;-4.30;99.90;;;;;;5033418;28;20176;-76
2024/01/12 09:42:32;;;;;;;200.70;55.28;;;-4.30;99.90;;;;;;5031698;28;20472;-77
2024/01/12 09:44:59;;;;;;;208.50;57.35;;;-4.30;99.90;;;;;;5031435;28;20033;-75
2024/01/12 09:47:26;;;;;;;166.50;47.53;;;-4.30;99.90;;;;;;5031063;28;20124;-75
2024/01/12 09:49:53;;;;;;;146.30;44.92;;;-4.30;99.90;;;;;;5032316;28;20151;-76
2024/01/12 09:52:18;;;;;;;156.38;45.08;;;-4.20;99.90;;;;;;5031375;28;20115;-77
2024/01/12 09:54:47;;;;;;;110.00;32.70;;;-4.10;99.90;;;;;;5030711;28;20462;-76
2024/01/12 09:57:13;;;;;;;114.22;33.10;;;-4.10;99.90;;;;;;5031476;28;20033;-77
2024/01/12 09:59:40;;;;;;;98.80;29.30;;;-4.10;99.90;;;;;;5031339;28;20034;-78
2024/01/12 10:02:12;;;;;;;95.07;27.55;;;-4.10;99.90;;;;;;5031391;28;20029;-78
2024/01/12 10:04:38;;;;;;;99.60;30.50;;;-4.10;99.90;;;;;;5030484;28;20041;-73
2024/01/12 10:07:04;;;;;;;89.07;26.55;;;-4.10;99.90;;;;;;5031387;28;20040;-79
2024/01/12 10:09:29;;;;;;;94.28;28.70;;;-4.10;99.90;;;;;;5030493;28;20033;-78
2024/01/12 10:11:59;;;;;;;108.70;30.83;;;-4.10;99.90;;;;;;5030337;28;20034;-79
2024/01/12 10:14:25;;;;;;;114.88;33.80;;;-4.00;99.90;;;;;;5036370;28;20049;-77
2024/01/12 10:16:55;;;;;;;106.35;32.42;;;-3.90;99.90;;;;;;5024471;28;20029;-76
2024/01/12 10:19:21;;;;;;;101.53;29.00;;;-3.80;99.90;;;;;;5030820;28;20034;-73
2024/01/12 10:21:48;;;;;;;104.75;30.77;;;-3.70;99.90;;;;;;5029831;28;20057;-74
2024/01/12 10:24:20;;;;;;;87.32;28.58;;;-3.70;99.90;;;;;;5045786;28;20029;-74
2024/01/12 10:26:50;;;;;;;85.78;26.20;;;-3.60;99.90;;;;;;5049934;28;20033;-75
2024/01/12 10:29:17;;;;;;;98.88;27.45;;;-3.50;99.90;;;;;;5050817;28;20052;-73
2024/01/12 10:31:44;;;;;;;98.60;30.13;;;-3.50;99.90;;;;;;5032541;28;20119;-73
2024/01/12 10:34:11;;;;;;;97.95;26.30;;;-3.50;99.90;;;;;;5030773;28;20033;-73
2024/01/12 10:36:38;;;;;;;84.45;26.20;;;-3.50;99.90;;;;;;5029892;28;20036;-70
2024/01/12 10:39:11;;;;;;;86.07;25.85;;;-3.50;99.90;;;;;;5030512;28;20044;-76
2024/01/12 10:41:40;;;;;;;136.95;44.67;;;-3.50;99.90;;;;;;5028877;28;20037;-69
2024/01/12 10:44:06;;;;;;;79.85;23.98;;;-3.40;99.90;;;;;;5029882;28;20046;-71
2024/01/12 10:46:40;;;;;;;76.93;23.40;;;-3.40;99.90;;;;;;5042046;28;20031;-78
2024/01/12 10:49:08;;;;;;;57.00;18.27;;;-3.30;99.90;;;;;;5050417;28;20087;-73
2024/01/12 10:51:38;;;;;;;78.80;25.25;;;-3.30;99.90;;;;;;5049275;28;20033;-77
2024/01/12 10:54:18;;;;;;;58.05;18.30;;;-3.30;99.90;;;;;;5030159;28;20031;-74
2024/01/12 10:56:45;;;;;;;59.05;18.67;;;-3.20;99.90;;;;;;5029624;28;20373;-74
2024/01/12 10:59:12;;;;;;;79.40;28.27;;;-3.10;99.90;;;;;;5029933;28;20037;-78
2024/01/12 11:01:39;;;;;;;55.17;17.58;;;-3.10;99.90;;;;;;5028082;28;20124;-73
2024/01/12 11:04:05;;;;;;;60.75;18.15;;;-3.00;99.90;;;;;;5030160;28;20047;-76
2024/01/12 11:06:31;;;;;;;82.40;29.75;;;-3.10;99.90;;;;;;5030027;28;20036;-77
2024/01/12 11:08:57;;;;;;;65.40;20.00;;;-3.10;99.90;;;;;;5028871;28;20045;-80
2024/01/12 11:11:31;;;;;;;55.13;16.48;;;-3.10;99.90;;;;;;5029681;28;20037;-76
2024/01/12 11:13:58;;;;;;;55.63;17.02;;;-3.10;99.90;;;;;;5028981;28;20163;-74
2024/01/12 11:16:24;;;;;;;67.00;19.13;;;-3.10;99.90;;;;;;5029880;28;20033;-72
2024/01/12 11:18:50;;;;;;;66.25;19.73;;;-3.20;99.90;;;;;;5028788;28;20055;-65
2024/01/12 11:21:24;;;;;;;62.88;18.77;;;-3.20;99.90;;;;;;5029499;28;20041;-66
2024/01/12 11:23:49;;;;;;;68.00;20.75;;;-3.30;99.90;;;;;;5028271;28;20033;-67
2024/01/12 11:26:15;;;;;;;70.15;19.75;;;-3.40;99.90;;;;;;5033312;28;20039;-66
2024/01/12 11:28:42;;;;;;;76.03;21.40;;;-3.40;99.90;;;;;;5028267;28;20029;-67
2024/01/12 11:31:08;;;;;;;61.20;17.35;;;-3.30;99.90;;;;;;5028382;28;20460;-66
2024/01/12 11:33:43;;;;;;;72.63;19.58;;;-3.30;99.90;;;;;;5029225;28;20061;-66
2024/01/12 11:36:15;;;;;;;63.85;17.17;;;-3.30;99.90;;;;;;5029054;28;20508;-66
2024/01/12 11:38:42;;;;;;;58.63;17.40;;;-3.20;99.90;;;;;;5028467;28;20017;-67
2024/01/12 11:41:12;;;;;;;62.20;18.30;;;-3.20;99.90;;;;;;5029397;28;20030;-68
2024/01/12 11:43:38;;;;;;;54.05;15.02;;;-3.20;99.90;;;;;;5027436;28;20025;-72
2024/01/12 11:46:04;;;;;;;48.67;14.32;;;-3.20;99.90;;;;;;5028427;28;20025;-71
2024/01/12 11:48:31;;;;;;;49.15;14.23;;;-3.10;99.90;;;;;;5028867;28;20053;-68
2024/01/12 11:50:57;;;;;;;48.78;13.65;;;-3.10;99.90;;;;;;5021509;28;20108;-68
2024/01/12 11:53:23;;;;;;;52.55;14.60;;;-3.10;99.90;;;;;;5027056;28;20037;-68
2024/01/12 11:55:49;;;;;;;54.08;15.40;;;-3.10;99.90;;;;;;5023694;28;20097;-68
2024/01/12 11:58:14;;;;;;;47.47;16.38;;;-3.00;99.90;;;;;;5026921;28;20041;-68
2024/01/12 12:00:40;;;;;;;49.47;15.23;;;-2.90;99.90;;;;;;5025417;28;20433;-68
2024/01/12 12:03:08;;;;;;;53.92;15.60;;;-2.90;99.90;;;;;;5021654;28;20050;-68
2024/01/12 12:05:34;;;;;;;50.45;17.83;;;-2.90;99.90;;;;;;5017745;28;20386;-68
2024/01/12 12:08:02;;;;;;;50.58;14.90;;;-2.80;99.90;;;;;;5015522;28;20487;-68
2024/01/12 12:10:28;;;;;;;47.53;13.98;;;-2.80;99.90;;;;;;5028311;28;20044;-68
2024/01/12 12:12:54;;;;;;;50.67;16.63;;;-2.80;99.90;;;;;;5021513;28;20461;-69
2024/01/12 12:15:19;;;;;;;48.20;16.58;;;-2.80;99.90;;;;;;5025336;28;20041;-69